Time,TemperatureF,DewpointF,PressureIn,WindDirection,WindDirectionDegrees,WindSpeedMPH,WindSpeedGustMPH,Humidity,HourlyPrecipIn,Conditions,Clouds,dailyrainin,SoftwareType,DateUTC
2013-03-17 00:00:00,33.4,31.3,29.92,NE,40,0.0,1.0,92,0.00,,---,0.09,VWS V14.01,2013-03-17 04:00:00,
2013-03-17 00:06:00,33.4,31.3,29.92,NE,40,0.0,0.0,92,0.00,,---,0.00,VWS V14.01,2013-03-17 04:06:00,
2013-03-17 00:08:00,33.4,31.3,29.92,NE,40,0.0,0.0,92,0.00,,---,0.00,VWS V14.01,2013-03-17 04:08:00,
2013-03-17 00:12:00,33.2,31.1,29.92,NE,40,0.0,1.0,92,0.00,,---,0.00,VWS V14.01,2013-03-17 04:12:00,
2013-03-17 00:14:00,33.2,31.1,29.92,NE,40,0.0,1.0,92,0.00,,---,0.00,VWS V14.01,2013-03-17 04:14:00,
2013-03-17 00:15:00,33.2,31.1,29.92,NE,40,0.0,1.0,92,0.00,,---,0.00,VWS V14.01,2013-03-17 04:15:00,
2013-03-17 00:18:00,33.2,31.1,29.92,NE,40,0.0,0.0,92,0.00,,---,0.00,VWS V14.01,2013-03-17 04:18:00,
2013-03-17 00:22:00,33.2,31.1,29.92,NE,40,0.0,0.0,92,0.00,,---,0.00,VWS V14.01,2013-03-17 04:22:00,
2013-03-17 00:24:00,33.2,31.1,29.92,NE,40,0.0,0.0,92,0.00,,---,0.00,VWS V14.01,2013-03-17 04:24:00,
2013-03-17 00:26:00,33.2,31.1,29.92,NE,40,0.0,0.0,92,0.00,,---,0.00,VWS V14.01,2013-03-17 04:26:00,
2013-03-17 00:28:00,33.2,31.1,29.92,NE,40,0.0,0.0,92,0.00,,---,0.00,VWS V14.01,2013-03-17 04:28:00,
2013-03-17 00:30:00,33.2,31.1,29.92,NE,40,0.0,0.0,92,0.00,,---,0.00,VWS V14.01,2013-03-17 04:30:00,
2013-03-17 00:32:00,33.2,31.1,29.92,NE,40,0.0,0.0,92,0.00,,---,0.00,VWS V14.01,2013-03-17 04:32:00,
2013-03-17 00:38:00,33.1,30.8,29.92,NE,40,0.0,0.0,91,0.00,,---,0.00,VWS V14.01,2013-03-17 04:38:00,
2013-03-17 00:42:00,33.1,30.8,29.91,NE,40,0.0,0.0,91,0.00,,---,0.00,VWS V14.01,2013-03-17 04:42:00,
2013-03-17 00:44:00,32.9,30.6,29.91,NE,40,0.0,0.0,91,0.00,,---,0.00,VWS V14.01,2013-03-17 04:44:00,
2013-03-17 00:45:00,32.9,30.6,29.92,NE,40,0.0,0.0,91,0.00,,---,0.00,VWS V14.01,2013-03-17 04:45:00,
2013-03-17 00:46:00,32.9,30.6,29.92,NE,40,0.0,0.0,91,0.00,,---,0.00,VWS V14.01,2013-03-17 04:46:00,
2013-03-17 00:52:00,32.8,30.5,29.91,NE,40,0.0,0.0,91,0.00,,---,0.00,VWS V14.01,2013-03-17 04:52:00,
2013-03-17 00:54:00,32.7,30.4,29.91,NE,40,0.0,0.0,91,0.00,,---,0.00,VWS V14.01,2013-03-17 04:54:00,
2013-03-17 01:00:00,32.5,30.2,29.92,NE,40,0.0,0.0,91,0.00,,---,0.00,VWS V14.01,2013-03-17 05:00:00,
2013-03-17 01:02:00,32.4,30.1,29.91,NE,40,0.0,0.0,91,0.00,,---,0.00,VWS V14.01,2013-03-17 05:02:00,
2013-03-17 01:06:00,32.2,29.9,29.92,NE,40,0.0,0.0,91,0.00,,---,0.00,VWS V14.01,2013-03-17 05:06:00,
2013-03-17 01:13:00,31.9,29.6,29.92,NE,40,0.0,0.0,91,0.00,,---,0.00,VWS V14.01,2013-03-17 05:13:00,
2013-03-17 01:15:00,31.8,29.5,29.92,NE,40,0.0,0.0,91,0.00,,---,0.00,VWS V14.01,2013-03-17 05:15:00,
2013-03-17 01:17:00,31.8,29.5,29.92,NE,40,0.0,0.0,91,0.00,,---,0.00,VWS V14.01,2013-03-17 05:17:00,
2013-03-17 01:21:00,31.6,29.3,29.92,NE,40,0.0,0.0,91,0.00,,---,0.00,VWS V14.01,2013-03-17 05:21:00,
2013-03-17 01:23:00,31.5,29.2,29.92,NE,40,0.0,0.0,91,0.00,,---,0.00,VWS V14.01,2013-03-17 05:23:00,
2013-03-17 01:25:00,31.3,29.0,29.92,NE,40,0.0,0.0,91,0.00,,---,0.00,VWS V14.01,2013-03-17 05:25:00,
2013-03-17 01:29:00,31.2,28.9,29.92,NE,40,0.0,0.0,91,0.00,,---,0.00,VWS V14.01,2013-03-17 05:29:00,
2013-03-17 01:30:00,31.0,28.7,29.92,NE,40,0.0,0.0,91,0.00,,---,0.00,VWS V14.01,2013-03-17 05:30:00,
2013-03-17 01:33:00,30.9,28.6,29.92,NE,40,0.0,0.0,91,0.00,,---,0.00,VWS V14.01,2013-03-17 05:33:00,
2013-03-17 01:39:00,30.7,28.4,29.92,NE,40,0.0,0.0,91,0.00,,---,0.00,VWS V14.01,2013-03-17 05:39:00,
2013-03-17 01:45:00,30.6,28.6,29.92,NE,40,0.0,0.0,92,0.00,,---,0.00,VWS V14.01,2013-03-17 05:45:00,
2013-03-17 01:47:00,30.6,28.6,29.92,NE,40,0.0,0.0,92,0.00,,---,0.00,VWS V14.01,2013-03-17 05:47:00,
2013-03-17 01:53:00,30.4,28.4,29.92,NE,40,0.0,0.0,92,0.00,,---,0.00,VWS V14.01,2013-03-17 05:53:00,
2013-03-17 01:57:00,30.3,28.3,29.92,NE,40,0.0,0.0,92,0.00,,---,0.00,VWS V14.01,2013-03-17 05:57:00,
2013-03-17 01:59:00,30.3,28.3,29.92,NE,40,0.0,0.0,92,0.00,,---,0.00,VWS V14.01,2013-03-17 05:59:00,
2013-03-17 02:03:00,30.1,28.1,29.92,NE,40,0.0,0.0,92,0.00,,---,0.00,VWS V14.01,2013-03-17 06:03:00,
2013-03-17 02:05:00,30.0,28.0,29.92,NE,40,0.0,0.0,92,0.00,,---,0.00,VWS V14.01,2013-03-17 06:05:00,
2013-03-17 02:09:00,29.8,27.8,29.92,NE,40,0.0,0.0,92,0.00,,---,0.00,VWS V14.01,2013-03-17 06:09:00,
2013-03-17 02:13:00,29.7,27.9,29.92,NE,40,0.0,0.0,93,0.00,,---,0.00,VWS V14.01,2013-03-17 06:13:00,
2013-03-17 02:17:00,29.5,27.7,29.92,NE,40,0.0,0.0,93,0.00,,---,0.00,VWS V14.01,2013-03-17 06:17:00,
2013-03-17 02:21:00,29.4,27.6,29.93,NE,40,0.0,0.0,93,0.00,,---,0.00,VWS V14.01,2013-03-17 06:21:00,
2013-03-17 02:23:00,29.3,27.5,29.93,NE,40,0.0,0.0,93,0.00,,---,0.00,VWS V14.01,2013-03-17 06:23:00,
2013-03-17 02:27:00,29.1,27.3,29.93,NE,40,0.0,0.0,93,0.00,,---,0.00,VWS V14.01,2013-03-17 06:27:00,
2013-03-17 02:29:00,29.1,27.3,29.93,NE,40,0.0,0.0,93,0.00,,---,0.00,VWS V14.01,2013-03-17 06:29:00,
2013-03-17 02:33:00,29.0,27.2,29.93,NE,40,0.0,0.0,93,0.00,,---,0.00,VWS V14.01,2013-03-17 06:33:00,
2013-03-17 02:35:00,29.0,27.2,29.93,NE,40,0.0,0.0,93,0.00,,---,0.00,VWS V14.01,2013-03-17 06:35:00,
2013-03-17 02:39:00,29.0,27.2,29.93,NE,40,0.0,0.0,93,0.00,,---,0.00,VWS V14.01,2013-03-17 06:39:00,
2013-03-17 02:44:00,29.0,27.2,29.93,NE,40,0.0,0.0,93,0.00,,---,0.00,VWS V14.01,2013-03-17 06:44:00,
2013-03-17 02:45:00,28.8,27.0,29.93,NE,40,0.0,0.0,93,0.00,,---,0.00,VWS V14.01,2013-03-17 06:45:00,
2013-03-17 02:46:00,28.8,27.0,29.93,NE,40,0.0,0.0,93,0.00,,---,0.00,VWS V14.01,2013-03-17 06:46:00,
2013-03-17 02:52:00,28.8,27.3,29.93,NE,40,0.0,0.0,94,0.00,,---,0.00,VWS V14.01,2013-03-17 06:52:00,
2013-03-17 02:54:00,28.7,27.2,29.93,NE,40,0.0,0.0,94,0.00,,---,0.00,VWS V14.01,2013-03-17 06:54:00,
2013-03-17 02:56:00,28.7,27.2,29.94,NE,40,0.0,0.0,94,0.00,,---,0.00,VWS V14.01,2013-03-17 06:56:00,
2013-03-17 03:00:00,28.5,27.0,29.94,NE,40,0.0,0.0,94,0.00,,---,0.00,VWS V14.01,2013-03-17 07:00:00,
2013-03-17 03:02:00,28.5,27.0,29.94,NE,40,0.0,0.0,94,0.00,,---,0.00,VWS V14.01,2013-03-17 07:02:00,
2013-03-17 03:06:00,28.4,26.9,29.95,NE,40,0.0,0.0,94,0.00,,---,0.00,VWS V14.01,2013-03-17 07:06:00,
2013-03-17 03:08:00,28.2,26.7,29.95,NE,40,0.0,0.0,94,0.00,,---,0.00,VWS V14.01,2013-03-17 07:08:00,
2013-03-17 03:12:00,28.1,26.6,29.95,NE,40,0.0,0.0,94,0.00,,---,0.00,VWS V14.01,2013-03-17 07:12:00,
2013-03-17 03:14:00,28.1,26.6,29.95,NE,40,0.0,0.0,94,0.00,,---,0.00,VWS V14.01,2013-03-17 07:14:00,
2013-03-17 03:15:00,27.9,26.4,29.95,NE,40,0.0,0.0,94,0.00,,---,0.00,VWS V14.01,2013-03-17 07:15:00,
2013-03-17 03:16:00,27.9,26.4,29.95,NE,40,0.0,0.0,94,0.00,,---,0.00,VWS V14.01,2013-03-17 07:16:00,
2013-03-17 03:20:00,27.9,26.4,29.95,NE,40,0.0,0.0,94,0.00,,---,0.00,VWS V14.01,2013-03-17 07:20:00,
2013-03-17 03:22:00,27.9,26.4,29.95,NE,40,0.0,1.0,94,0.00,,---,0.00,VWS V14.01,2013-03-17 07:22:00,
2013-03-17 03:28:00,28.2,27.0,29.95,NE,40,0.0,1.0,95,0.00,,---,0.00,VWS V14.01,2013-03-17 07:28:00,
2013-03-17 03:30:00,28.2,27.0,29.95,NE,40,0.0,1.0,95,0.00,,---,0.00,VWS V14.01,2013-03-17 07:30:00,
2013-03-17 03:32:00,28.2,27.0,29.95,NE,40,0.0,0.0,95,0.00,,---,0.00,VWS V14.01,2013-03-17 07:32:00,
2013-03-17 03:34:00,28.2,27.0,29.95,NE,40,0.0,0.0,95,0.00,,---,0.00,VWS V14.01,2013-03-17 07:34:00,
2013-03-17 03:36:00,28.2,27.0,29.95,NE,40,0.0,0.0,95,0.00,,---,0.00,VWS V14.01,2013-03-17 07:36:00,
2013-03-17 03:38:00,28.2,27.0,29.95,NE,40,0.0,0.0,95,0.00,,---,0.00,VWS V14.01,2013-03-17 07:38:00,
2013-03-17 03:40:00,28.2,27.0,29.95,NE,40,0.0,0.0,95,0.00,,---,0.00,VWS V14.01,2013-03-17 07:40:00,
2013-03-17 03:44:00,28.2,27.0,29.96,NE,40,0.0,0.0,95,0.00,,---,0.00,VWS V14.01,2013-03-17 07:44:00,
2013-03-17 03:45:00,28.2,27.0,29.96,NE,40,0.0,0.0,95,0.00,,---,0.00,VWS V14.01,2013-03-17 07:45:00,
2013-03-17 03:46:00,28.2,27.0,29.96,NE,40,0.0,0.0,95,0.00,,---,0.00,VWS V14.01,2013-03-17 07:46:00,
2013-03-17 03:48:00,28.2,27.0,29.96,NE,40,0.0,0.0,95,0.00,,---,0.00,VWS V14.01,2013-03-17 07:48:00,
2013-03-17 03:54:00,28.1,26.9,29.96,NE,40,0.0,0.0,95,0.00,,---,0.00,VWS V14.01,2013-03-17 07:54:00,
2013-03-17 03:56:00,28.1,26.9,29.96,NE,40,0.0,0.0,95,0.00,,---,0.00,VWS V14.01,2013-03-17 07:56:00,
2013-03-17 03:58:00,28.1,26.9,29.96,NE,40,0.0,0.0,95,0.00,,---,0.00,VWS V14.01,2013-03-17 07:58:00,
2013-03-17 04:00:00,28.1,26.9,29.96,NE,40,0.0,0.0,95,0.00,,---,0.00,VWS V14.01,2013-03-17 08:00:00,
2013-03-17 04:04:00,27.9,26.7,29.96,NE,40,0.0,0.0,95,0.00,,---,0.00,VWS V14.01,2013-03-17 08:04:00,
2013-03-17 04:06:00,27.9,26.7,29.97,NE,40,0.0,0.0,95,0.00,,---,0.00,VWS V14.01,2013-03-17 08:06:00,
2013-03-17 04:10:00,27.9,26.7,29.96,NE,40,0.0,0.0,95,0.00,,---,0.00,VWS V14.01,2013-03-17 08:10:00,
2013-03-17 04:14:00,27.9,26.7,29.97,NE,40,0.0,0.0,95,0.00,,---,0.00,VWS V14.01,2013-03-17 08:14:00,
2013-03-17 04:15:00,27.9,26.7,29.97,NE,40,0.0,0.0,95,0.00,,---,0.00,VWS V14.01,2013-03-17 08:15:00,
2013-03-17 04:16:00,27.9,26.7,29.96,NE,40,0.0,0.0,95,0.00,,---,0.00,VWS V14.01,2013-03-17 08:16:00,
2013-03-17 04:20:00,28.1,26.9,29.97,NE,40,0.0,0.0,95,0.00,,---,0.00,VWS V14.01,2013-03-17 08:20:00,
2013-03-17 04:22:00,28.1,26.9,29.97,NE,40,0.0,0.0,95,0.00,,---,0.00,VWS V14.01,2013-03-17 08:22:00,
2013-03-17 04:26:00,28.1,26.9,29.97,NE,40,0.0,0.0,95,0.00,,---,0.00,VWS V14.01,2013-03-17 08:26:00,
2013-03-17 04:31:00,28.2,27.0,29.98,NE,40,0.0,0.0,95,0.00,,---,0.00,VWS V14.01,2013-03-17 08:31:00,
2013-03-17 04:33:00,28.2,27.0,29.98,NE,40,0.0,0.0,95,0.00,,---,0.00,VWS V14.01,2013-03-17 08:33:00,
2013-03-17 04:39:00,28.4,27.1,29.98,NE,40,0.0,0.0,95,0.00,,---,0.00,VWS V14.01,2013-03-17 08:39:00,
2013-03-17 04:43:00,28.4,27.1,29.98,NE,40,0.0,0.0,95,0.00,,---,0.00,VWS V14.01,2013-03-17 08:43:00,
2013-03-17 04:45:00,28.5,27.2,29.98,NE,40,0.0,0.0,95,0.00,,---,0.00,VWS V14.01,2013-03-17 08:45:00,
2013-03-17 04:51:00,28.5,27.2,29.97,NE,40,0.0,2.0,95,0.00,,---,0.00,VWS V14.01,2013-03-17 08:51:00,
2013-03-17 04:57:00,28.7,27.7,29.98,NE,40,0.0,2.0,96,0.00,,---,0.00,VWS V14.01,2013-03-17 08:57:00,
2013-03-17 05:03:00,28.7,27.7,29.98,NE,40,0.0,0.0,96,0.00,,---,0.00,VWS V14.01,2013-03-17 09:03:00,
2013-03-17 05:07:00,28.8,27.8,29.98,NE,40,0.0,0.0,96,0.00,,---,0.00,VWS V14.01,2013-03-17 09:07:00,
2013-03-17 05:09:00,28.8,27.8,29.98,NE,40,0.0,0.0,96,0.00,,---,0.00,VWS V14.01,2013-03-17 09:09:00,
2013-03-17 05:11:00,28.8,27.8,29.98,NE,40,0.0,0.0,96,0.00,,---,0.00,VWS V14.01,2013-03-17 09:11:00,
2013-03-17 05:13:00,28.8,27.8,29.99,NE,40,0.0,0.0,96,0.00,,---,0.00,VWS V14.01,2013-03-17 09:13:00,
2013-03-17 05:17:00,28.8,27.8,29.98,NE,40,0.0,0.0,96,0.00,,---,0.00,VWS V14.01,2013-03-17 09:17:00,
2013-03-17 05:19:00,29.0,28.0,29.98,NE,40,0.0,0.0,96,0.00,,---,0.00,VWS V14.01,2013-03-17 09:19:00,
2013-03-17 05:23:00,29.0,28.0,29.98,NE,40,0.0,0.0,96,0.00,,---,0.00,VWS V14.01,2013-03-17 09:23:00,
2013-03-17 05:25:00,29.0,28.0,29.99,NE,40,0.0,0.0,96,0.00,,---,0.00,VWS V14.01,2013-03-17 09:25:00,
2013-03-17 05:27:00,29.0,28.0,29.99,NE,40,0.0,0.0,96,0.00,,---,0.00,VWS V14.01,2013-03-17 09:27:00,
2013-03-17 05:29:00,29.1,28.1,29.99,NE,40,0.0,0.0,96,0.00,,---,0.00,VWS V14.01,2013-03-17 09:29:00,
2013-03-17 05:33:00,29.1,28.1,29.99,NE,40,0.0,0.0,96,0.00,,---,0.00,VWS V14.01,2013-03-17 09:33:00,
2013-03-17 05:35:00,29.3,28.3,29.99,NE,40,0.0,0.0,96,0.00,,---,0.00,VWS V14.01,2013-03-17 09:35:00,
2013-03-17 05:41:00,29.3,28.3,30.00,NE,40,0.0,0.0,96,0.00,,---,0.00,VWS V14.01,2013-03-17 09:41:00,
2013-03-17 05:43:00,29.3,28.3,30.00,NE,40,0.0,0.0,96,0.00,,---,0.00,VWS V14.01,2013-03-17 09:43:00,
2013-03-17 05:45:00,29.3,28.3,29.99,NE,40,0.0,0.0,96,0.00,,---,0.00,VWS V14.01,2013-03-17 09:45:00,
2013-03-17 05:49:00,29.3,28.3,30.00,NE,40,0.0,0.0,96,0.00,,---,0.00,VWS V14.01,2013-03-17 09:49:00,
2013-03-17 05:51:00,29.3,28.3,29.99,NE,40,0.0,0.0,96,0.00,,---,0.00,VWS V14.01,2013-03-17 09:51:00,
2013-03-17 05:55:00,29.4,28.4,29.99,NE,40,0.0,0.0,96,0.00,,---,0.00,VWS V14.01,2013-03-17 09:55:00,
2013-03-17 05:57:00,29.4,28.4,29.99,NE,40,0.0,0.0,96,0.00,,---,0.00,VWS V14.01,2013-03-17 09:57:00,
2013-03-17 06:01:00,29.4,28.4,30.00,WNW,284,1.0,2.0,96,0.00,,---,0.00,VWS V14.01,2013-03-17 10:01:00,
2013-03-17 06:03:00,29.4,28.4,30.00,WNW,288,2.0,3.0,96,0.00,,---,0.00,VWS V14.01,2013-03-17 10:03:00,
2013-03-17 06:07:00,29.4,28.1,30.00,WNW,288,2.0,3.0,95,0.00,,---,0.00,VWS V14.01,2013-03-17 10:07:00,
2013-03-17 06:09:00,29.5,28.2,30.01,SSW,211,0.0,3.0,95,0.00,,---,0.00,VWS V14.01,2013-03-17 10:09:00,
2013-03-17 06:12:00,29.5,28.2,30.01,WNW,282,0.0,3.0,95,0.00,,---,0.00,VWS V14.01,2013-03-17 10:12:00,
2013-03-17 06:16:00,29.5,28.0,30.01,WNW,286,0.0,0.0,94,0.00,,---,0.00,VWS V14.01,2013-03-17 10:16:00,
2013-03-17 06:18:00,29.7,27.9,30.02,WNW,284,0.0,3.0,93,0.00,,---,0.00,VWS V14.01,2013-03-17 10:18:00,
2013-03-17 06:20:00,29.7,27.7,30.02,WNW,291,3.0,3.0,92,0.00,,---,0.00,VWS V14.01,2013-03-17 10:20:00,
2013-03-17 06:26:00,30.0,27.2,30.02,WNW,296,1.0,5.0,89,0.00,,---,0.00,VWS V14.01,2013-03-17 10:26:00,
2013-03-17 06:28:00,30.0,26.9,30.03,WNW,296,0.0,5.0,88,0.00,,---,0.00,VWS V14.01,2013-03-17 10:28:00,
2013-03-17 06:30:00,30.1,26.7,30.03,NNW,343,1.0,5.0,87,0.00,,---,0.00,VWS V14.01,2013-03-17 10:30:00,
2013-03-17 06:34:00,30.1,26.1,30.03,WNW,302,3.0,3.0,85,0.00,,---,0.00,VWS V14.01,2013-03-17 10:34:00,
2013-03-17 06:36:00,30.1,26.1,30.03,WNW,302,0.0,3.0,85,0.00,,---,0.00,VWS V14.01,2013-03-17 10:36:00,
2013-03-17 06:38:00,30.1,25.9,30.03,WNW,302,0.0,3.0,84,0.00,,---,0.00,VWS V14.01,2013-03-17 10:38:00,
2013-03-17 06:42:00,30.1,25.3,30.04,NNW,335,1.0,3.0,82,0.00,,---,0.00,VWS V14.01,2013-03-17 10:42:00,
2013-03-17 06:44:00,30.1,25.0,30.04,WNW,284,2.0,6.0,81,0.00,,---,0.00,VWS V14.01,2013-03-17 10:44:00,
2013-03-17 06:45:00,30.1,24.7,30.04,NNW,346,2.0,6.0,80,0.00,,---,0.00,VWS V14.01,2013-03-17 10:45:00,
2013-03-17 06:48:00,30.1,24.4,30.04,WNW,302,3.0,7.0,79,0.00,,---,0.00,VWS V14.01,2013-03-17 10:48:00,
2013-03-17 06:50:00,30.1,24.1,30.04,West,267,5.0,9.0,78,0.00,,---,0.00,VWS V14.01,2013-03-17 10:50:00,
2013-03-17 06:54:00,30.1,23.5,30.05,West,269,3.0,9.0,76,0.00,,---,0.00,VWS V14.01,2013-03-17 10:54:00,
2013-03-17 06:58:00,30.1,23.5,30.05,NW,310,2.0,9.0,76,0.00,,---,0.00,VWS V14.01,2013-03-17 10:58:00,
2013-03-17 07:00:00,30.1,23.1,30.05,WNW,293,2.0,11.0,75,0.00,,---,0.00,VWS V14.01,2013-03-17 11:00:00,
2013-03-17 07:04:00,30.0,22.7,30.05,NW,312,4.0,8.0,74,0.00,,---,0.00,VWS V14.01,2013-03-17 11:04:00,
2013-03-17 07:06:00,30.0,22.4,30.06,WNW,302,2.0,8.0,73,0.00,,---,0.00,VWS V14.01,2013-03-17 11:06:00,
2013-03-17 07:12:00,30.0,22.4,30.06,NNW,340,2.0,8.0,73,0.00,,---,0.00,VWS V14.01,2013-03-17 11:12:00,
2013-03-17 07:14:00,29.8,22.2,30.07,SSW,209,1.0,8.0,73,0.00,,---,0.00,VWS V14.01,2013-03-17 11:14:00,
2013-03-17 07:16:00,29.7,21.8,30.07,NW,323,1.0,2.0,72,0.00,,---,0.00,VWS V14.01,2013-03-17 11:16:00,
2013-03-17 07:20:00,29.5,21.6,30.07,WNW,284,0.0,4.0,72,0.00,,---,0.00,VWS V14.01,2013-03-17 11:20:00,
2013-03-17 07:24:00,29.4,21.5,30.07,North,355,1.0,5.0,72,0.00,,---,0.00,VWS V14.01,2013-03-17 11:24:00,
2013-03-17 07:26:00,29.4,21.2,30.07,North,5,1.0,6.0,71,0.00,,---,0.00,VWS V14.01,2013-03-17 11:26:00,
2013-03-17 07:30:00,29.1,19.9,30.08,WNW,300,4.0,12.0,68,0.00,,---,0.00,VWS V14.01,2013-03-17 11:30:00,
2013-03-17 07:32:00,29.1,19.5,30.08,NNE,26,3.0,7.0,67,0.00,,---,0.00,VWS V14.01,2013-03-17 11:32:00,
2013-03-17 07:34:00,29.1,18.8,30.08,NNW,328,4.0,7.0,65,0.00,,---,0.00,VWS V14.01,2013-03-17 11:34:00,
2013-03-17 07:38:00,29.1,18.8,30.08,NNE,24,3.0,7.0,65,0.00,,---,0.00,VWS V14.01,2013-03-17 11:38:00,
2013-03-17 07:40:00,29.0,18.7,30.08,North,360,1.0,7.0,65,0.00,,---,0.00,VWS V14.01,2013-03-17 11:40:00,
2013-03-17 07:44:00,29.0,18.7,30.08,NNW,341,0.0,7.0,65,0.00,,---,0.00,VWS V14.01,2013-03-17 11:44:00,
2013-03-17 07:45:00,29.0,18.7,30.08,NNW,341,0.0,7.0,65,0.00,,---,0.00,VWS V14.01,2013-03-17 11:45:00,
2013-03-17 07:46:00,29.0,18.7,30.08,NNW,341,2.0,2.0,65,0.00,,---,0.00,VWS V14.01,2013-03-17 11:46:00,
2013-03-17 07:50:00,28.8,18.5,30.08,NW,306,0.0,4.0,65,0.00,,---,0.00,VWS V14.01,2013-03-17 11:50:00,
2013-03-17 07:52:00,28.8,18.5,30.08,West,269,5.0,5.0,65,0.00,,---,0.00,VWS V14.01,2013-03-17 11:52:00,
2013-03-17 07:54:00,28.8,18.2,30.08,WNW,302,2.0,5.0,64,0.00,,---,0.00,VWS V14.01,2013-03-17 11:54:00,
2013-03-17 07:56:00,29.0,18.7,30.08,NW,319,4.0,5.0,65,0.00,,---,0.00,VWS V14.01,2013-03-17 11:56:00,
2013-03-17 08:00:00,29.0,18.7,30.09,North,349,0.0,5.0,65,0.00,,---,0.00,VWS V14.01,2013-03-17 12:00:00,
2013-03-17 08:02:00,29.1,18.8,30.09,North,349,0.0,0.0,65,0.00,,---,0.00,VWS V14.01,2013-03-17 12:02:00,
2013-03-17 08:04:00,29.3,19.4,30.09,NE,40,4.0,5.0,66,0.00,,---,0.00,VWS V14.01,2013-03-17 12:04:00,
2013-03-17 08:08:00,29.7,19.4,30.09,NNE,26,4.0,5.0,65,0.00,,---,0.00,VWS V14.01,2013-03-17 12:08:00,
2013-03-17 08:12:00,29.8,19.5,30.09,North,351,4.0,6.0,65,0.00,,---,0.00,VWS V14.01,2013-03-17 12:12:00,
2013-03-17 08:15:00,29.8,18.8,30.09,West,274,3.0,7.0,63,0.00,,---,0.00,VWS V14.01,2013-03-17 12:15:00,
2013-03-17 08:16:00,29.8,18.8,30.09,West,274,1.0,3.0,63,0.00,,---,0.00,VWS V14.01,2013-03-17 12:16:00,
2013-03-17 08:18:00,29.8,19.1,30.09,NNW,344,1.0,6.0,64,0.00,,---,0.00,VWS V14.01,2013-03-17 12:18:00,
2013-03-17 08:24:00,30.1,19.0,30.10,NNE,15,2.0,6.0,63,0.00,,---,0.00,VWS V14.01,2013-03-17 12:24:00,
2013-03-17 08:26:00,30.3,19.2,30.11,NW,323,3.0,10.0,63,0.00,,---,0.00,VWS V14.01,2013-03-17 12:26:00,
2013-03-17 08:28:00,30.3,19.2,30.11,WNW,294,2.0,10.0,63,0.00,,---,0.00,VWS V14.01,2013-03-17 12:28:00,
2013-03-17 08:30:00,30.3,19.2,30.11,NW,306,1.0,10.0,63,0.00,,---,0.00,VWS V14.01,2013-03-17 12:30:00,
2013-03-17 08:32:00,30.3,18.9,30.12,SW,225,1.0,5.0,62,0.00,,---,0.00,VWS V14.01,2013-03-17 12:32:00,
2013-03-17 08:36:00,30.3,18.9,30.12,West,277,4.0,5.0,62,0.00,,---,0.00,VWS V14.01,2013-03-17 12:36:00,
2013-03-17 08:38:00,30.3,18.9,30.12,WNW,290,1.0,5.0,62,0.00,,---,0.00,VWS V14.01,2013-03-17 12:38:00,
2013-03-17 08:44:00,30.4,19.0,30.13,West,274,3.0,6.0,62,0.00,,---,0.00,VWS V14.01,2013-03-17 12:44:00,
2013-03-17 08:48:00,30.4,18.2,30.13,WSW,249,1.0,11.0,60,0.00,,---,0.00,VWS V14.01,2013-03-17 12:48:00,
2013-03-17 08:50:00,30.4,18.6,30.13,WNW,284,0.0,11.0,61,0.00,,---,0.00,VWS V14.01,2013-03-17 12:50:00,
2013-03-17 08:52:00,30.4,18.2,30.13,WNW,284,2.0,11.0,60,0.00,,---,0.00,VWS V14.01,2013-03-17 12:52:00,
2013-03-17 08:56:00,30.3,18.1,30.13,WSW,253,6.0,11.0,60,0.00,,---,0.00,VWS V14.01,2013-03-17 12:56:00,
2013-03-17 08:58:00,30.3,18.1,30.13,NW,321,2.0,11.0,60,0.00,,---,0.00,VWS V14.01,2013-03-17 12:58:00,
2013-03-17 09:00:00,30.4,18.6,30.13,NW,306,2.0,11.0,61,0.00,,---,0.00,VWS V14.01,2013-03-17 13:00:00,
2013-03-17 09:05:00,30.4,17.8,30.13,NNE,32,5.0,8.0,59,0.00,,---,0.00,VWS V14.01,2013-03-17 13:05:00,
2013-03-17 09:07:00,30.6,18.4,30.13,NW,325,4.0,8.0,60,0.00,,---,0.00,VWS V14.01,2013-03-17 13:07:00,
2013-03-17 09:11:00,30.7,18.5,30.13,West,267,2.0,8.0,60,0.00,,---,0.00,VWS V14.01,2013-03-17 13:11:00,
2013-03-17 09:13:00,30.7,17.7,30.13,NNW,343,3.0,8.0,58,0.00,,---,0.00,VWS V14.01,2013-03-17 13:13:00,
2013-03-17 09:15:00,30.9,17.9,30.13,NW,319,2.0,8.0,58,0.00,,---,0.00,VWS V14.01,2013-03-17 13:15:00,
2013-03-17 09:19:00,31.0,18.0,30.13,West,275,7.0,10.0,58,0.00,,---,0.00,VWS V14.01,2013-03-17 13:19:00,
2013-03-17 09:21:00,31.0,17.6,30.13,WNW,296,4.0,11.0,57,0.00,,---,0.00,VWS V14.01,2013-03-17 13:21:00,
2013-03-17 09:23:00,31.0,17.2,30.13,West,276,2.0,11.0,56,0.00,,---,0.00,VWS V14.01,2013-03-17 13:23:00,
2013-03-17 09:27:00,31.2,17.3,30.13,West,279,4.0,11.0,56,0.00,,---,0.00,VWS V14.01,2013-03-17 13:27:00,
2013-03-17 09:29:00,31.2,17.3,30.13,NW,312,6.0,11.0,56,0.00,,---,0.00,VWS V14.01,2013-03-17 13:29:00,
2013-03-17 09:33:00,31.3,17.4,30.14,West,274,4.0,7.0,56,0.00,,---,0.00,VWS V14.01,2013-03-17 13:33:00,
2013-03-17 09:37:00,31.3,17.9,30.14,WNW,303,1.0,7.0,57,0.00,,---,0.00,VWS V14.01,2013-03-17 13:37:00,
2013-03-17 09:41:00,31.6,18.1,30.14,West,277,4.0,7.0,57,0.00,,---,0.00,VWS V14.01,2013-03-17 13:41:00,
2013-03-17 09:43:00,31.6,17.7,30.14,West,279,1.0,7.0,56,0.00,,---,0.00,VWS V14.01,2013-03-17 13:43:00,
2013-03-17 09:45:00,31.8,18.3,30.14,NW,308,5.0,7.0,57,0.00,,---,0.00,VWS V14.01,2013-03-17 13:45:00,
2013-03-17 09:47:00,31.8,17.9,30.14,WNW,283,3.0,7.0,56,0.00,,---,0.00,VWS V14.01,2013-03-17 13:47:00,
2013-03-17 09:51:00,31.6,17.7,30.14,West,279,1.0,7.0,56,0.00,,---,0.00,VWS V14.01,2013-03-17 13:51:00,
2013-03-17 09:55:00,31.5,17.6,30.14,NNW,330,3.0,9.0,56,0.00,,---,0.00,VWS V14.01,2013-03-17 13:55:00,
2013-03-17 09:57:00,31.5,16.8,30.14,NW,321,3.0,10.0,54,0.00,,---,0.00,VWS V14.01,2013-03-17 13:57:00,
2013-03-17 10:00:00,31.5,17.2,30.14,NW,326,3.0,10.0,55,0.00,,---,0.00,VWS V14.01,2013-03-17 14:00:00,
2013-03-17 10:01:00,31.5,16.8,30.14,NNW,329,2.0,3.0,54,0.00,,---,0.00,VWS V14.01,2013-03-17 14:01:00,
2013-03-17 10:03:00,31.5,17.2,30.14,WNW,298,3.0,4.0,55,0.00,,---,0.00,VWS V14.01,2013-03-17 14:03:00,
2013-03-17 10:09:00,31.6,18.1,30.14,WNW,295,2.0,4.0,57,0.00,,---,0.00,VWS V14.01,2013-03-17 14:09:00,
2013-03-17 10:11:00,31.8,17.5,30.14,West,272,5.0,7.0,55,0.00,,---,0.00,VWS V14.01,2013-03-17 14:11:00,
2013-03-17 10:13:00,31.8,17.1,30.14,West,273,3.0,7.0,54,0.00,,---,0.00,VWS V14.01,2013-03-17 14:13:00,
2013-03-17 10:19:00,31.8,17.5,30.14,NW,306,4.0,5.0,55,0.00,,---,0.00,VWS V14.01,2013-03-17 14:19:00,
2013-03-17 10:21:00,31.8,17.1,30.14,WNW,301,5.0,6.0,54,0.00,,---,0.00,VWS V14.01,2013-03-17 14:21:00,
2013-03-17 10:27:00,32.1,18.2,30.13,NNE,16,6.0,11.0,56,0.00,,---,0.00,VWS V14.01,2013-03-17 14:27:00,
2013-03-17 10:30:00,32.1,16.9,30.13,WNW,291,0.0,11.0,53,0.00,,---,0.00,VWS V14.01,2013-03-17 14:30:00,
2013-03-17 10:35:00,32.1,17.3,30.13,West,281,7.0,9.0,54,0.00,,---,0.00,VWS V14.01,2013-03-17 14:35:00,
2013-03-17 10:39:00,32.1,16.9,30.13,WNW,297,3.0,13.0,53,0.00,,---,0.00,VWS V14.01,2013-03-17 14:39:00,
2013-03-17 10:41:00,32.2,17.4,30.13,WNW,298,0.0,13.0,54,0.00,,---,0.00,VWS V14.01,2013-03-17 14:41:00,
2013-03-17 10:45:00,32.2,16.1,30.13,NW,306,6.0,13.0,51,0.00,,---,0.00,VWS V14.01,2013-03-17 14:45:00,
2013-03-17 10:48:00,32.2,17.0,30.13,NW,321,3.0,9.0,53,0.00,,---,0.00,VWS V14.01,2013-03-17 14:48:00,
2013-03-17 10:50:00,32.2,16.6,30.13,NW,318,3.0,9.0,52,0.00,,---,0.00,VWS V14.01,2013-03-17 14:50:00,
2013-03-17 10:54:00,32.4,16.8,30.13,NNW,329,9.0,10.0,52,0.00,,---,0.00,VWS V14.01,2013-03-17 14:54:00,
2013-03-17 10:56:00,32.4,17.2,30.13,SW,236,12.0,12.0,53,0.00,,---,0.00,VWS V14.01,2013-03-17 14:56:00,
2013-03-17 11:00:00,32.4,16.8,30.13,NNW,344,5.0,12.0,52,0.00,,---,0.00,VWS V14.01,2013-03-17 15:00:00,
2013-03-17 11:06:00,32.4,16.8,30.13,WNW,290,5.0,9.0,52,0.00,,---,0.00,VWS V14.01,2013-03-17 15:06:00,
2013-03-17 11:10:00,32.5,16.4,30.13,NNW,335,6.0,9.0,51,0.00,,---,0.00,VWS V14.01,2013-03-17 15:10:00,
2013-03-17 11:15:00,32.5,16.4,30.13,North,5,4.0,11.0,51,0.00,,---,0.00,VWS V14.01,2013-03-17 15:15:00,
2013-03-17 11:16:00,32.5,16.4,30.13,NE,42,3.0,6.0,51,0.00,,---,0.00,VWS V14.01,2013-03-17 15:16:00,
2013-03-17 11:22:00,32.8,17.6,30.13,NE,41,3.0,6.0,53,0.00,,---,0.00,VWS V14.01,2013-03-17 15:22:00,
2013-03-17 11:24:00,32.9,17.7,30.13,NW,326,1.0,7.0,53,0.00,,---,0.00,VWS V14.01,2013-03-17 15:24:00,
2013-03-17 11:30:00,32.9,17.7,30.13,WSW,247,4.0,10.0,53,0.00,,---,0.00,VWS V14.01,2013-03-17 15:30:00,
2013-03-17 11:32:00,32.9,17.2,30.13,NNW,334,1.0,5.0,52,0.00,,---,0.00,VWS V14.01,2013-03-17 15:32:00,
2013-03-17 11:38:00,33.2,17.5,30.13,West,279,6.0,6.0,52,0.00,,---,0.00,VWS V14.01,2013-03-17 15:38:00,
2013-03-17 11:40:00,33.2,17.5,30.13,West,277,3.0,13.0,52,0.00,,---,0.00,VWS V14.01,2013-03-17 15:40:00,
2013-03-17 11:44:00,33.2,17.0,30.13,NE,46,2.0,13.0,51,0.00,,---,0.00,VWS V14.01,2013-03-17 15:44:00,
2013-03-17 11:45:00,33.2,17.0,30.13,WNW,284,1.0,13.0,51,0.00,,---,0.00,VWS V14.01,2013-03-17 15:45:00,
2013-03-17 11:48:00,33.2,17.5,30.14,WNW,295,5.0,5.0,52,0.00,,---,0.00,VWS V14.01,2013-03-17 15:48:00,
2013-03-17 11:50:00,33.4,17.2,30.14,NNE,30,1.0,6.0,51,0.00,,---,0.00,VWS V14.01,2013-03-17 15:50:00,
2013-03-17 11:52:00,33.5,18.2,30.14,NW,314,1.0,6.0,53,0.00,,---,0.00,VWS V14.01,2013-03-17 15:52:00,
2013-03-17 11:54:00,33.7,18.4,30.14,NW,322,1.0,6.0,53,0.00,,---,0.00,VWS V14.01,2013-03-17 15:54:00,
2013-03-17 11:56:00,33.8,18.5,30.14,NW,323,2.0,11.0,53,0.00,,---,0.00,VWS V14.01,2013-03-17 15:56:00,
2013-03-17 11:58:00,33.8,17.6,30.14,NE,39,0.0,11.0,51,0.00,,---,0.00,VWS V14.01,2013-03-17 15:58:00,
2013-03-17 12:00:00,33.8,17.6,30.14,NE,44,3.0,11.0,51,0.00,,---,0.00,VWS V14.01,2013-03-17 16:00:00,
2013-03-17 12:04:00,34.0,18.2,30.15,West,271,5.0,8.0,52,0.00,,---,0.00,VWS V14.01,2013-03-17 16:04:00,
2013-03-17 12:06:00,34.0,17.8,30.15,West,266,4.0,8.0,51,0.00,,---,0.00,VWS V14.01,2013-03-17 16:06:00,
2013-03-17 12:08:00,34.1,18.3,30.15,NW,312,5.0,8.0,52,0.00,,---,0.00,VWS V14.01,2013-03-17 16:08:00,
2013-03-17 12:12:00,34.3,17.6,30.15,West,273,4.0,10.0,50,0.00,,---,0.00,VWS V14.01,2013-03-17 16:12:00,
2013-03-17 12:14:00,34.3,17.6,30.15,WNW,300,9.0,10.0,50,0.00,,---,0.00,VWS V14.01,2013-03-17 16:14:00,
2013-03-17 12:15:00,34.3,18.5,30.15,West,281,5.0,10.0,52,0.00,,---,0.00,VWS V14.01,2013-03-17 16:15:00,
2013-03-17 12:18:00,34.1,17.4,30.15,NW,320,0.0,6.0,50,0.00,,---,0.00,VWS V14.01,2013-03-17 16:18:00,
2013-03-17 12:22:00,34.3,18.1,30.15,WSW,252,6.0,10.0,51,0.00,,---,0.00,VWS V14.01,2013-03-17 16:22:00,
2013-03-17 12:24:00,34.4,17.7,30.15,West,265,5.0,10.0,50,0.00,,---,0.00,VWS V14.01,2013-03-17 16:24:00,
2013-03-17 12:30:00,34.6,17.4,30.15,West,261,4.0,12.0,49,0.00,,---,0.00,VWS V14.01,2013-03-17 16:30:00,
2013-03-17 12:32:00,34.6,17.4,30.15,NW,315,8.0,9.0,49,0.00,,---,0.00,VWS V14.01,2013-03-17 16:32:00,
2013-03-17 12:36:00,34.9,18.2,30.15,West,276,12.0,13.0,50,0.00,,---,0.00,VWS V14.01,2013-03-17 16:36:00,
2013-03-17 12:38:00,35.0,17.3,30.15,WSW,242,3.0,13.0,48,0.00,,---,0.00,VWS V14.01,2013-03-17 16:38:00,
2013-03-17 12:40:00,35.2,19.8,30.15,West,269,4.0,13.0,53,0.00,,---,0.00,VWS V14.01,2013-03-17 16:40:00,
2013-03-17 12:44:00,35.3,17.6,30.15,NNW,335,3.0,13.0,48,0.00,,---,0.00,VWS V14.01,2013-03-17 16:44:00,
2013-03-17 12:46:00,35.5,18.2,30.15,NNE,18,1.0,5.0,49,0.00,,---,0.00,VWS V14.01,2013-03-17 16:46:00,
2013-03-17 12:48:00,35.8,19.5,30.15,NE,55,6.0,6.0,51,0.00,,---,0.00,VWS V14.01,2013-03-17 16:48:00,
2013-03-17 12:52:00,35.8,19.0,30.15,WNW,289,6.0,13.0,50,0.00,,---,0.00,VWS V14.01,2013-03-17 16:52:00,
2013-03-17 12:54:00,35.8,19.0,30.15,North,9,2.0,13.0,50,0.00,,---,0.00,VWS V14.01,2013-03-17 16:54:00,
2013-03-17 12:56:00,35.8,18.0,30.15,West,262,6.0,13.0,48,0.00,,---,0.00,VWS V14.01,2013-03-17 16:56:00,
2013-03-17 12:58:00,35.6,17.9,30.15,WNW,292,3.0,13.0,48,0.00,,---,0.00,VWS V14.01,2013-03-17 16:58:00,
2013-03-17 13:00:00,35.6,17.9,30.15,NNW,328,2.0,13.0,48,0.00,,---,0.00,VWS V14.01,2013-03-17 17:00:00,
2013-03-17 13:02:00,35.6,18.8,30.15,WSW,250,5.0,12.0,50,0.00,,---,0.00,VWS V14.01,2013-03-17 17:02:00,
2013-03-17 13:06:00,35.6,18.3,30.15,WSW,251,7.0,12.0,49,0.00,,---,0.00,VWS V14.01,2013-03-17 17:06:00,
2013-03-17 13:08:00,35.6,18.3,30.15,WNW,302,1.0,12.0,49,0.00,,---,0.00,VWS V14.01,2013-03-17 17:08:00,
2013-03-17 13:10:00,35.6,18.8,30.15,WNW,286,4.0,12.0,50,0.00,,---,0.00,VWS V14.01,2013-03-17 17:10:00,
2013-03-17 13:12:00,35.6,17.4,30.15,NW,309,4.0,12.0,47,0.00,,---,0.00,VWS V14.01,2013-03-17 17:12:00,
2013-03-17 13:15:00,35.6,18.3,30.15,SW,235,5.0,12.0,49,0.00,,---,0.00,VWS V14.01,2013-03-17 17:15:00,
2013-03-17 13:18:00,35.5,18.2,30.15,North,10,2.0,12.0,49,0.00,,---,0.00,VWS V14.01,2013-03-17 17:18:00,
2013-03-17 13:20:00,35.5,17.8,30.15,WNW,288,2.0,12.0,48,0.00,,---,0.00,VWS V14.01,2013-03-17 17:20:00,
2013-03-17 13:22:00,35.5,17.8,30.15,WNW,283,3.0,12.0,48,0.00,,---,0.00,VWS V14.01,2013-03-17 17:22:00,
2013-03-17 13:26:00,35.6,18.8,30.15,WNW,295,2.0,12.0,50,0.00,,---,0.00,VWS V14.01,2013-03-17 17:26:00,
2013-03-17 13:28:00,35.9,18.6,30.15,WSW,257,3.0,12.0,49,0.00,,---,0.00,VWS V14.01,2013-03-17 17:28:00,
2013-03-17 13:30:00,36.0,19.2,30.15,West,279,5.0,12.0,50,0.00,,---,0.00,VWS V14.01,2013-03-17 17:30:00,
2013-03-17 13:34:00,36.2,17.4,30.15,WNW,299,6.0,10.0,46,0.00,,---,0.00,VWS V14.01,2013-03-17 17:34:00,
2013-03-17 13:36:00,36.2,17.9,30.15,WNW,301,6.0,10.0,47,0.00,,---,0.00,VWS V14.01,2013-03-17 17:36:00,
2013-03-17 13:38:00,36.3,18.0,30.15,West,276,4.0,11.0,47,0.00,,---,0.00,VWS V14.01,2013-03-17 17:38:00,
2013-03-17 13:40:00,36.3,18.0,30.15,NNW,333,7.0,11.0,47,0.00,,---,0.00,VWS V14.01,2013-03-17 17:40:00,
2013-03-17 13:42:00,36.3,18.5,30.15,WSW,254,4.0,11.0,48,0.00,,---,0.00,VWS V14.01,2013-03-17 17:42:00,
2013-03-17 13:44:00,36.3,18.5,30.15,West,275,5.0,11.0,48,0.00,,---,0.00,VWS V14.01,2013-03-17 17:44:00,
2013-03-17 13:47:00,36.3,18.5,30.15,WSW,243,5.0,10.0,48,0.00,,---,0.00,VWS V14.01,2013-03-17 17:47:00,
2013-03-17 13:51:00,36.3,18.0,30.14,WNW,293,10.0,10.0,47,0.00,,---,0.00,VWS V14.01,2013-03-17 17:51:00,
2013-03-17 13:53:00,36.5,18.2,30.15,NW,318,1.0,12.0,47,0.00,,---,0.00,VWS V14.01,2013-03-17 17:53:00,
2013-03-17 13:55:00,36.5,18.7,30.15,WNW,300,3.0,12.0,48,0.00,,---,0.00,VWS V14.01,2013-03-17 17:55:00,
2013-03-17 13:59:00,36.8,18.0,30.15,NNW,335,2.0,12.0,46,0.00,,---,0.00,VWS V14.01,2013-03-17 17:59:00,
2013-03-17 14:01:00,36.8,18.5,30.15,West,275,4.0,6.0,47,0.00,,---,0.00,VWS V14.01,2013-03-17 18:01:00,
2013-03-17 14:03:00,36.8,18.5,30.14,WSW,244,9.0,11.0,47,0.00,,---,0.00,VWS V14.01,2013-03-17 18:03:00,
2013-03-17 14:05:00,36.8,18.5,30.15,NNW,342,4.0,11.0,47,0.00,,---,0.00,VWS V14.01,2013-03-17 18:05:00,
2013-03-17 14:07:00,36.9,19.5,30.15,West,262,1.0,11.0,49,0.00,,---,0.00,VWS V14.01,2013-03-17 18:07:00,
2013-03-17 14:09:00,36.9,18.1,30.14,WSW,240,0.0,11.0,46,0.00,,---,0.00,VWS V14.01,2013-03-17 18:09:00,
2013-03-17 14:11:00,37.0,19.1,30.14,NW,306,5.0,11.0,48,0.00,,---,0.00,VWS V14.01,2013-03-17 18:11:00,
2013-03-17 14:13:00,37.2,19.3,30.14,WNW,289,5.0,11.0,48,0.00,,---,0.00,VWS V14.01,2013-03-17 18:13:00,
2013-03-17 14:15:00,37.0,18.2,30.14,West,273,1.0,13.0,46,0.00,,---,0.00,VWS V14.01,2013-03-17 18:15:00,
2013-03-17 14:17:00,37.0,18.2,30.14,North,360,3.0,4.0,46,0.00,,---,0.00,VWS V14.01,2013-03-17 18:17:00,
2013-03-17 14:23:00,37.5,18.6,30.14,WSW,257,5.0,10.0,46,0.00,,---,0.00,VWS V14.01,2013-03-17 18:23:00,
2013-03-17 14:25:00,37.3,18.4,30.14,WSW,249,5.0,10.0,46,0.00,,---,0.00,VWS V14.01,2013-03-17 18:25:00,
2013-03-17 14:30:00,37.3,18.9,30.14,West,271,6.0,10.0,47,0.00,,---,0.00,VWS V14.01,2013-03-17 18:30:00,
2013-03-17 14:31:00,37.3,18.9,30.14,West,281,2.0,6.0,47,0.00,,---,0.00,VWS V14.01,2013-03-17 18:31:00,
2013-03-17 14:33:00,37.3,18.4,30.14,West,259,2.0,7.0,46,0.00,,---,0.00,VWS V14.01,2013-03-17 18:33:00,
2013-03-17 14:37:00,37.5,18.1,30.14,NW,321,4.0,11.0,45,0.00,,---,0.00,VWS V14.01,2013-03-17 18:37:00,
2013-03-17 14:39:00,37.5,18.1,30.13,NNE,22,1.0,11.0,45,0.00,,---,0.00,VWS V14.01,2013-03-17 18:39:00,
2013-03-17 14:43:00,37.6,18.7,30.14,West,264,5.0,11.0,46,0.00,,---,0.00,VWS V14.01,2013-03-17 18:43:00,
2013-03-17 14:45:00,37.3,16.9,30.14,WSW,244,6.0,12.0,43,0.00,,---,0.00,VWS V14.01,2013-03-17 18:45:00,
2013-03-17 14:47:00,37.2,16.8,30.13,WSW,255,3.0,10.0,43,0.00,,---,0.00,VWS V14.01,2013-03-17 18:47:00,
2013-03-17 14:49:00,37.2,18.3,30.13,NE,56,2.0,10.0,46,0.00,,---,0.00,VWS V14.01,2013-03-17 18:49:00,
2013-03-17 14:53:00,37.2,17.8,30.14,WNW,285,5.0,10.0,45,0.00,,---,0.00,VWS V14.01,2013-03-17 18:53:00,
2013-03-17 14:55:00,37.3,18.9,30.14,WSW,257,3.0,10.0,47,0.00,,---,0.00,VWS V14.01,2013-03-17 18:55:00,
2013-03-17 14:59:00,37.2,17.3,30.13,NW,308,5.0,15.0,44,0.00,,---,0.00,VWS V14.01,2013-03-17 18:59:00,
2013-03-17 15:00:00,37.0,17.6,30.14,West,276,11.0,15.0,45,0.00,,---,0.00,VWS V14.01,2013-03-17 19:00:00,
2013-03-17 15:03:00,36.9,16.0,30.13,WNW,295,11.0,11.0,42,0.00,,---,0.00,VWS V14.01,2013-03-17 19:03:00,
2013-03-17 15:05:00,36.9,17.0,30.14,WNW,297,4.0,11.0,44,0.00,,---,0.00,VWS V14.01,2013-03-17 19:05:00,
2013-03-17 15:09:00,37.0,17.1,30.14,West,275,5.0,11.0,44,0.00,,---,0.00,VWS V14.01,2013-03-17 19:09:00,
2013-03-17 15:11:00,37.2,17.8,30.14,WNW,298,2.0,11.0,45,0.00,,---,0.00,VWS V14.01,2013-03-17 19:11:00,
2013-03-17 15:15:00,37.3,17.4,30.14,NW,310,3.0,11.0,44,0.00,,---,0.00,VWS V14.01,2013-03-17 19:15:00,
2013-03-17 15:17:00,37.3,18.4,30.14,West,271,3.0,10.0,46,0.00,,---,0.00,VWS V14.01,2013-03-17 19:17:00,
2013-03-17 15:23:00,36.9,17.6,30.14,NW,316,5.0,11.0,45,0.00,,---,0.00,VWS V14.01,2013-03-17 19:23:00,
2013-03-17 15:27:00,36.9,17.6,30.14,NNW,348,3.0,11.0,45,0.00,,---,0.00,VWS V14.01,2013-03-17 19:27:00,
2013-03-17 15:29:00,36.9,17.0,30.14,WSW,254,3.0,11.0,44,0.00,,---,0.00,VWS V14.01,2013-03-17 19:29:00,
2013-03-17 15:30:00,37.0,17.6,30.14,WNW,292,2.0,11.0,45,0.00,,---,0.00,VWS V14.01,2013-03-17 19:30:00,
2013-03-17 15:33:00,37.2,17.3,30.14,NNE,24,6.0,10.0,44,0.00,,---,0.00,VWS V14.01,2013-03-17 19:33:00,
2013-03-17 15:37:00,37.0,16.6,30.14,West,261,5.0,15.0,43,0.00,,---,0.00,VWS V14.01,2013-03-17 19:37:00,
2013-03-17 15:39:00,37.0,17.6,30.14,West,263,4.0,15.0,45,0.00,,---,0.00,VWS V14.01,2013-03-17 19:39:00,
2013-03-17 15:41:00,37.2,17.3,30.14,NW,313,3.0,15.0,44,0.00,,---,0.00,VWS V14.01,2013-03-17 19:41:00,
2013-03-17 15:43:00,37.2,16.2,30.14,West,262,5.0,15.0,42,0.00,,---,0.00,VWS V14.01,2013-03-17 19:43:00,
2013-03-17 15:45:00,37.2,16.2,30.14,NW,317,2.0,15.0,42,0.00,,---,0.00,VWS V14.01,2013-03-17 19:45:00,
2013-03-17 15:47:00,37.3,16.9,30.14,NNW,331,5.0,6.0,43,0.00,,---,0.00,VWS V14.01,2013-03-17 19:47:00,
2013-03-17 15:54:00,37.3,16.9,30.14,NW,325,7.0,9.0,43,0.00,,---,0.00,VWS V14.01,2013-03-17 19:54:00,
2013-03-17 15:56:00,37.3,15.8,30.14,NW,316,6.0,13.0,41,0.00,,---,0.00,VWS V14.01,2013-03-17 19:56:00,
2013-03-17 16:00:00,37.2,16.2,30.14,WNW,303,0.0,13.0,42,0.00,,---,0.00,VWS V14.01,2013-03-17 20:00:00,
2013-03-17 16:04:00,37.3,16.3,30.14,WNW,300,4.0,6.0,42,0.00,,---,0.00,VWS V14.01,2013-03-17 20:04:00,
2013-03-17 16:06:00,37.3,16.9,30.15,WNW,297,0.0,6.0,43,0.00,,---,0.00,VWS V14.01,2013-03-17 20:06:00,
2013-03-17 16:08:00,37.5,17.0,30.15,WNW,287,7.0,7.0,43,0.00,,---,0.00,VWS V14.01,2013-03-17 20:08:00,
2013-03-17 16:12:00,37.6,16.0,30.15,WSW,254,3.0,8.0,41,0.00,,---,0.00,VWS V14.01,2013-03-17 20:12:00,
2013-03-17 16:14:00,37.8,16.8,30.15,WNW,297,0.0,8.0,42,0.00,,---,0.00,VWS V14.01,2013-03-17 20:14:00,
2013-03-17 16:15:00,37.8,16.2,30.15,NNW,341,8.0,12.0,41,0.00,,---,0.00,VWS V14.01,2013-03-17 20:15:00,
2013-03-17 16:18:00,37.8,16.8,30.15,North,360,2.0,8.0,42,0.00,,---,0.00,VWS V14.01,2013-03-17 20:18:00,
2013-03-17 16:22:00,37.8,16.8,30.15,ENE,60,5.0,11.0,42,0.00,,---,0.00,VWS V14.01,2013-03-17 20:22:00,
2013-03-17 16:24:00,37.6,16.6,30.15,NNW,334,2.0,11.0,42,0.00,,---,0.00,VWS V14.01,2013-03-17 20:24:00,
2013-03-17 16:26:00,37.6,16.6,30.15,North,350,2.0,11.0,42,0.00,,---,0.00,VWS V14.01,2013-03-17 20:26:00,
2013-03-17 16:28:00,37.6,16.6,30.15,NW,317,0.0,11.0,42,0.00,,---,0.00,VWS V14.01,2013-03-17 20:28:00,
2013-03-17 16:32:00,37.6,16.6,30.15,West,269,0.0,7.0,42,0.00,,---,0.00,VWS V14.01,2013-03-17 20:32:00,
2013-03-17 16:34:00,37.6,16.6,30.15,WSW,250,3.0,12.0,42,0.00,,---,0.00,VWS V14.01,2013-03-17 20:34:00,
2013-03-17 16:36:00,37.3,16.3,30.15,WNW,285,3.0,12.0,42,0.00,,---,0.00,VWS V14.01,2013-03-17 20:36:00,
2013-03-17 16:42:00,36.9,15.4,30.15,WSW,250,12.0,13.0,41,0.00,,---,0.00,VWS V14.01,2013-03-17 20:42:00,
2013-03-17 16:44:00,36.9,16.0,30.16,West,274,2.0,13.0,42,0.00,,---,0.00,VWS V14.01,2013-03-17 20:44:00,
2013-03-17 16:50:00,36.9,16.0,30.16,NW,310,3.0,12.0,42,0.00,,---,0.00,VWS V14.01,2013-03-17 20:50:00,
2013-03-17 16:52:00,37.0,16.6,30.16,NW,316,0.0,12.0,43,0.00,,---,0.00,VWS V14.01,2013-03-17 20:52:00,
2013-03-17 16:54:00,37.0,16.1,30.16,WNW,294,0.0,12.0,42,0.00,,---,0.00,VWS V14.01,2013-03-17 20:54:00,
2013-03-17 16:56:00,37.0,16.1,30.16,West,279,3.0,12.0,42,0.00,,---,0.00,VWS V14.01,2013-03-17 20:56:00,
2013-03-17 16:58:00,37.0,16.1,30.16,West,265,7.0,12.0,42,0.00,,---,0.00,VWS V14.01,2013-03-17 20:58:00,
2013-03-17 17:00:00,37.0,16.1,30.16,West,275,3.0,12.0,42,0.00,,---,0.00,VWS V14.01,2013-03-17 21:00:00,
2013-03-17 17:02:00,36.9,16.0,30.16,WNW,293,6.0,9.0,42,0.00,,---,0.00,VWS V14.01,2013-03-17 21:02:00,
2013-03-17 17:06:00,36.8,15.9,30.16,West,263,3.0,9.0,42,0.00,,---,0.00,VWS V14.01,2013-03-17 21:06:00,
2013-03-17 17:08:00,36.6,15.7,30.16,WSW,257,3.0,9.0,42,0.00,,---,0.00,VWS V14.01,2013-03-17 21:08:00,
2013-03-17 17:10:00,36.6,15.7,30.16,NNW,335,5.0,11.0,42,0.00,,---,0.00,VWS V14.01,2013-03-17 21:10:00,
2013-03-17 17:12:00,36.6,15.7,30.16,WNW,294,4.0,11.0,42,0.00,,---,0.00,VWS V14.01,2013-03-17 21:12:00,
2013-03-17 17:14:00,36.8,15.9,30.16,West,261,1.0,11.0,42,0.00,,---,0.00,VWS V14.01,2013-03-17 21:14:00,
2013-03-17 17:15:00,36.8,17.0,30.16,West,278,5.0,11.0,44,0.00,,---,0.00,VWS V14.01,2013-03-17 21:15:00,
2013-03-17 17:20:00,36.8,15.9,30.17,WNW,296,5.0,7.0,42,0.00,,---,0.00,VWS V14.01,2013-03-17 21:20:00,
2013-03-17 17:22:00,36.8,16.4,30.17,WNW,295,3.0,7.0,43,0.00,,---,0.00,VWS V14.01,2013-03-17 21:22:00,
2013-03-17 17:29:00,36.8,15.9,30.17,West,279,1.0,7.0,42,0.00,,---,0.00,VWS V14.01,2013-03-17 21:29:00,
2013-03-17 17:31:00,36.8,16.4,30.17,WSW,258,1.0,2.0,43,0.00,,---,0.00,VWS V14.01,2013-03-17 21:31:00,
2013-03-17 17:35:00,36.6,16.2,30.17,West,278,1.0,9.0,43,0.00,,---,0.00,VWS V14.01,2013-03-17 21:35:00,
2013-03-17 17:41:00,36.6,16.2,30.17,WNW,303,5.0,9.0,43,0.00,,---,0.00,VWS V14.01,2013-03-17 21:41:00,
2013-03-17 17:45:00,36.6,15.7,30.17,WNW,288,2.0,9.0,42,0.00,,---,0.00,VWS V14.01,2013-03-17 21:45:00,
2013-03-17 17:47:00,36.5,15.6,30.17,WNW,287,2.0,9.0,42,0.00,,---,0.00,VWS V14.01,2013-03-17 21:47:00,
2013-03-17 17:49:00,36.5,16.1,30.17,West,280,1.0,9.0,43,0.00,,---,0.00,VWS V14.01,2013-03-17 21:49:00,
2013-03-17 17:53:00,36.3,16.0,30.18,WNW,301,2.0,9.0,43,0.00,,---,0.00,VWS V14.01,2013-03-17 21:53:00,
2013-03-17 17:55:00,36.3,16.0,30.18,West,273,4.0,9.0,43,0.00,,---,0.00,VWS V14.01,2013-03-17 21:55:00,
2013-03-17 17:59:00,36.3,16.5,30.18,West,271,2.0,9.0,44,0.00,,---,0.00,VWS V14.01,2013-03-17 21:59:00,
2013-03-17 18:00:00,36.3,16.5,30.18,NNW,329,1.0,9.0,44,0.00,,---,0.00,VWS V14.01,2013-03-17 22:00:00,
2013-03-17 18:05:00,36.3,16.0,30.18,North,355,2.0,5.0,43,0.00,,---,0.00,VWS V14.01,2013-03-17 22:05:00,
2013-03-17 18:11:00,36.2,15.9,30.18,NW,306,3.0,7.0,43,0.00,,---,0.00,VWS V14.01,2013-03-17 22:11:00,
2013-03-17 18:13:00,36.2,15.9,30.18,NW,309,1.0,7.0,43,0.00,,---,0.00,VWS V14.01,2013-03-17 22:13:00,
2013-03-17 18:15:00,36.2,15.9,30.18,WNW,286,0.0,7.0,43,0.00,,---,0.00,VWS V14.01,2013-03-17 22:15:00,
2013-03-17 18:21:00,36.2,16.4,30.18,WSW,250,3.0,5.0,44,0.00,,---,0.00,VWS V14.01,2013-03-17 22:21:00,
2013-03-17 18:23:00,36.0,15.7,30.19,West,264,4.0,7.0,43,0.00,,---,0.00,VWS V14.01,2013-03-17 22:23:00,
2013-03-17 18:25:00,36.0,16.2,30.19,WSW,257,3.0,7.0,44,0.00,,---,0.00,VWS V14.01,2013-03-17 22:25:00,
2013-03-17 18:27:00,36.0,16.2,30.19,West,277,3.0,7.0,44,0.00,,---,0.00,VWS V14.01,2013-03-17 22:27:00,
2013-03-17 18:29:00,36.0,15.7,30.19,West,275,3.0,7.0,43,0.00,,---,0.00,VWS V14.01,2013-03-17 22:29:00,
2013-03-17 18:31:00,36.0,16.2,30.19,West,265,1.0,6.0,44,0.00,,---,0.00,VWS V14.01,2013-03-17 22:31:00,
2013-03-17 18:33:00,35.9,16.1,30.19,West,266,0.0,6.0,44,0.00,,---,0.00,VWS V14.01,2013-03-17 22:33:00,
2013-03-17 18:39:00,35.9,16.1,30.19,West,267,0.0,6.0,44,0.00,,---,0.00,VWS V14.01,2013-03-17 22:39:00,
2013-03-17 18:41:00,35.9,16.6,30.20,West,269,0.0,6.0,45,0.00,,---,0.00,VWS V14.01,2013-03-17 22:41:00,
2013-03-17 18:43:00,35.8,16.5,30.20,West,269,0.0,6.0,45,0.00,,---,0.00,VWS V14.01,2013-03-17 22:43:00,
2013-03-17 18:45:00,35.8,16.5,30.20,West,267,1.0,6.0,45,0.00,,---,0.00,VWS V14.01,2013-03-17 22:45:00,
2013-03-17 18:47:00,35.8,16.5,30.20,NE,38,6.0,6.0,45,0.00,,---,0.00,VWS V14.01,2013-03-17 22:47:00,
2013-03-17 18:51:00,35.6,15.9,30.20,NW,321,0.0,9.0,44,0.00,,---,0.00,VWS V14.01,2013-03-17 22:51:00,
2013-03-17 18:53:00,35.6,16.4,30.20,NNW,347,2.0,9.0,45,0.00,,---,0.00,VWS V14.01,2013-03-17 22:53:00,
2013-03-17 18:55:00,35.6,16.4,30.20,WNW,296,1.0,9.0,45,0.00,,---,0.00,VWS V14.01,2013-03-17 22:55:00,
2013-03-17 18:57:00,35.5,16.3,30.20,WSW,253,1.0,9.0,45,0.00,,---,0.00,VWS V14.01,2013-03-17 22:57:00,
2013-03-17 19:01:00,35.5,15.8,30.21,West,273,2.0,4.0,44,0.00,,---,0.00,VWS V14.01,2013-03-17 23:01:00,
2013-03-17 19:03:00,35.5,15.8,30.21,West,280,0.0,4.0,44,0.00,,---,0.00,VWS V14.01,2013-03-17 23:03:00,
2013-03-17 19:07:00,35.3,16.1,30.21,West,280,0.0,4.0,45,0.00,,---,0.00,VWS V14.01,2013-03-17 23:07:00,
2013-03-17 19:14:00,35.2,16.0,30.21,NNW,347,0.0,4.0,45,0.00,,---,0.00,VWS V14.01,2013-03-17 23:14:00,
2013-03-17 19:15:00,35.2,16.0,30.21,NNW,347,2.0,4.0,45,0.00,,---,0.00,VWS V14.01,2013-03-17 23:15:00,
2013-03-17 19:18:00,35.2,16.0,30.21,NNW,347,0.0,2.0,45,0.00,,---,0.00,VWS V14.01,2013-03-17 23:18:00,
2013-03-17 19:24:00,35.0,16.3,30.21,NNW,347,0.0,2.0,46,0.00,,---,0.00,VWS V14.01,2013-03-17 23:24:00,
2013-03-17 19:26:00,34.9,16.2,30.21,West,271,2.0,3.0,46,0.00,,---,0.00,VWS V14.01,2013-03-17 23:26:00,
2013-03-17 19:28:00,34.9,16.2,30.21,West,271,0.0,3.0,46,0.00,,---,0.00,VWS V14.01,2013-03-17 23:28:00,
2013-03-17 19:30:00,34.9,16.2,30.21,West,271,0.0,3.0,46,0.00,,---,0.00,VWS V14.01,2013-03-17 23:30:00,
2013-03-17 19:38:00,34.6,16.5,30.22,West,275,0.0,1.0,47,0.00,,---,0.00,VWS V14.01,2013-03-17 23:38:00,
2013-03-17 19:44:00,34.4,16.3,30.22,West,275,0.0,1.0,47,0.00,,---,0.00,VWS V14.01,2013-03-17 23:44:00,
2013-03-17 19:46:00,34.3,16.2,30.22,West,275,0.0,0.0,47,0.00,,---,0.00,VWS V14.01,2013-03-17 23:46:00,
2013-03-17 19:48:00,34.1,16.0,30.22,West,275,0.0,0.0,47,0.00,,---,0.00,VWS V14.01,2013-03-17 23:48:00,
2013-03-17 19:50:00,34.1,16.5,30.23,West,275,0.0,0.0,48,0.00,,---,0.00,VWS V14.01,2013-03-17 23:50:00,
2013-03-17 19:52:00,34.0,16.4,30.23,West,275,0.0,0.0,48,0.00,,---,0.00,VWS V14.01,2013-03-17 23:52:00,
2013-03-17 19:56:00,33.8,16.7,30.22,West,275,0.0,0.0,49,0.00,,---,0.00,VWS V14.01,2013-03-17 23:56:00,
2013-03-17 19:58:00,33.8,17.1,30.22,West,275,0.0,0.0,50,0.00,,---,0.00,VWS V14.01,2013-03-17 23:58:00,
2013-03-17 20:04:00,33.5,17.8,30.23,West,275,0.0,0.0,52,0.00,,---,0.00,VWS V14.01,2013-03-18 00:04:00,
2013-03-17 20:06:00,33.4,18.1,30.23,West,275,0.0,0.0,53,0.00,,---,0.00,VWS V14.01,2013-03-18 00:06:00,
2013-03-17 20:08:00,33.2,17.5,30.23,West,275,0.0,0.0,52,0.00,,---,0.00,VWS V14.01,2013-03-18 00:08:00,
2013-03-17 20:10:00,33.1,17.4,30.23,West,275,0.0,0.0,52,0.00,,---,0.00,VWS V14.01,2013-03-18 00:10:00,
2013-03-17 20:12:00,32.9,17.2,30.23,West,275,0.0,0.0,52,0.00,,---,0.00,VWS V14.01,2013-03-18 00:12:00,
2013-03-17 20:15:00,32.8,17.6,30.23,West,275,0.0,0.0,53,0.00,,---,0.00,VWS V14.01,2013-03-18 00:15:00,
2013-03-17 20:20:00,32.7,17.5,30.24,West,275,0.0,0.0,53,0.00,,---,0.00,VWS V14.01,2013-03-18 00:20:00,
2013-03-17 20:22:00,32.7,18.3,30.24,West,275,0.0,0.0,55,0.00,,---,0.00,VWS V14.01,2013-03-18 00:22:00,
2013-03-17 20:24:00,32.5,17.7,30.24,West,275,0.0,0.0,54,0.00,,---,0.00,VWS V14.01,2013-03-18 00:24:00,
2013-03-17 20:26:00,32.5,17.7,30.24,West,275,0.0,0.0,54,0.00,,---,0.00,VWS V14.01,2013-03-18 00:26:00,
2013-03-17 20:28:00,32.5,17.7,30.24,West,275,0.0,0.0,54,0.00,,---,0.00,VWS V14.01,2013-03-18 00:28:00,
2013-03-17 20:32:00,32.5,18.6,30.24,West,275,0.0,0.0,56,0.00,,---,0.00,VWS V14.01,2013-03-18 00:32:00,
2013-03-17 20:34:00,32.4,18.9,30.24,West,275,0.0,0.0,57,0.00,,---,0.00,VWS V14.01,2013-03-18 00:34:00,
2013-03-17 20:39:00,32.2,19.1,30.25,West,275,0.0,0.0,58,0.00,,---,0.00,VWS V14.01,2013-03-18 00:39:00,
2013-03-17 20:41:00,32.1,19.0,30.25,West,275,0.0,0.0,58,0.00,,---,0.00,VWS V14.01,2013-03-18 00:41:00,
2013-03-17 20:45:00,31.8,18.7,30.25,West,275,0.0,0.0,58,0.00,,---,0.00,VWS V14.01,2013-03-18 00:45:00,
2013-03-17 20:51:00,31.6,18.9,30.25,West,275,0.0,0.0,59,0.00,,---,0.00,VWS V14.01,2013-03-18 00:51:00,
2013-03-17 20:53:00,31.5,18.8,30.25,West,275,0.0,0.0,59,0.00,,---,0.00,VWS V14.01,2013-03-18 00:53:00,
2013-03-17 20:57:00,31.3,18.6,30.25,West,275,0.0,0.0,59,0.00,,---,0.00,VWS V14.01,2013-03-18 00:57:00,
2013-03-17 20:59:00,31.3,19.0,30.25,West,275,0.0,0.0,60,0.00,,---,0.00,VWS V14.01,2013-03-18 00:59:00,
2013-03-17 21:00:00,31.2,19.0,30.25,West,275,0.0,0.0,60,0.00,,---,0.00,VWS V14.01,2013-03-18 01:00:00,
2013-03-17 21:03:00,31.0,19.1,30.25,West,275,0.0,0.0,61,0.00,,---,0.00,VWS V14.01,2013-03-18 01:03:00,
2013-03-17 21:05:00,31.0,19.1,30.25,West,275,0.0,0.0,61,0.00,,---,0.00,VWS V14.01,2013-03-18 01:05:00,
2013-03-17 21:07:00,30.9,19.0,30.26,West,275,0.0,0.0,61,0.00,,---,0.00,VWS V14.01,2013-03-18 01:07:00,
2013-03-17 21:11:00,30.7,19.2,30.26,West,275,0.0,0.0,62,0.00,,---,0.00,VWS V14.01,2013-03-18 01:11:00,
2013-03-17 21:13:00,30.7,19.2,30.26,West,275,0.0,0.0,62,0.00,,---,0.00,VWS V14.01,2013-03-18 01:13:00,
2013-03-17 21:15:00,30.6,19.5,30.26,West,275,0.0,0.0,63,0.00,,---,0.00,VWS V14.01,2013-03-18 01:15:00,
2013-03-17 21:17:00,30.6,19.5,30.26,West,275,0.0,0.0,63,0.00,,---,0.00,VWS V14.01,2013-03-18 01:17:00,
2013-03-17 21:23:00,30.3,20.0,30.26,West,275,0.0,0.0,65,0.00,,---,0.00,VWS V14.01,2013-03-18 01:23:00,
2013-03-17 21:25:00,30.3,20.0,30.26,West,275,0.0,0.0,65,0.00,,---,0.00,VWS V14.01,2013-03-18 01:25:00,
2013-03-17 21:29:00,30.1,20.1,30.26,West,275,0.0,0.0,66,0.00,,---,0.00,VWS V14.01,2013-03-18 01:29:00,
2013-03-17 21:30:00,30.1,20.1,30.27,West,275,0.0,0.0,66,0.00,,---,0.00,VWS V14.01,2013-03-18 01:30:00,
2013-03-17 21:31:00,30.1,20.1,30.27,West,275,0.0,0.0,66,0.00,,---,0.00,VWS V14.01,2013-03-18 01:31:00,
2013-03-17 21:37:00,30.0,20.4,30.27,West,275,0.0,0.0,67,0.00,,---,0.00,VWS V14.01,2013-03-18 01:37:00,
2013-03-17 21:41:00,30.0,20.7,30.27,West,275,0.0,0.0,68,0.00,,---,0.00,VWS V14.01,2013-03-18 01:41:00,
2013-03-17 21:43:00,29.8,20.5,30.27,West,275,0.0,0.0,68,0.00,,---,0.00,VWS V14.01,2013-03-18 01:43:00,
2013-03-17 21:45:00,29.8,20.5,30.27,North,0,0.0,0.0,68,0.00,,---,0.00,VWS V14.01,2013-03-18 01:45:00,
2013-03-17 22:00:00,29.5,20.6,30.28,North,0,0.0,0.0,69,0.00,,---,0.00,VWS V14.01,2013-03-18 02:00:00,
2013-03-17 22:15:00,29.4,21.2,30.29,North,0,0.0,0.0,71,0.00,,---,0.00,VWS V14.01,2013-03-18 02:15:00,
2013-03-17 22:30:00,29.1,20.9,30.29,North,0,0.0,0.0,71,0.00,,---,0.00,VWS V14.01,2013-03-18 02:30:00,
2013-03-17 22:45:00,28.7,20.8,30.29,North,0,0.0,0.0,72,0.00,,---,0.00,VWS V14.01,2013-03-18 02:45:00,
2013-03-17 23:00:00,28.5,21.0,30.29,North,0,0.0,0.0,73,0.00,,---,0.00,VWS V14.01,2013-03-18 03:00:00,
2013-03-17 23:15:00,28.4,20.5,30.29,North,0,0.0,0.0,72,0.00,,---,0.00,VWS V14.01,2013-03-18 03:15:00,
2013-03-17 23:30:00,27.9,20.4,30.29,North,0,0.0,0.0,73,0.00,,---,0.00,VWS V14.01,2013-03-18 03:30:00,
2013-03-17 23:45:00,27.5,20.3,30.30,North,0,0.0,0.0,74,0.00,,---,0.00,VWS V14.01,2013-03-18 03:45:00,